Bei Facebook empfehlenBei Twitter postenGoogle plusPinterest

Das Wetter im Erzgebirge am 04.05.2016

Wetter und Klima am 04.05.2016 Holzhau im Erzgebirge (630m ü.NN)
Letzte gemessene Temperatur und Uhrzeit der Messung23:45:00 Uhr3.80 °C
Temperatur (Maximum / Höchstwert) und Uhrzeit der Messung00:30:00 Uhr5.40 °C
Temperatur (Minimum / Tiefstwert) und Uhrzeit der Messung08:00:003.50 °C
Errechneter Absolutwert der Temperaturschwankungen zwischen Tmin und Tmax des Tages1.90 K
Errechnete Tagesmitteltemperatur4.40729 °C
Gesamt - Niederschlag des Tages (in flüssiger Form)5.18 Liter / m²
Luftdruck (Maximum / Höchstwert) und Zeitpunkt der Messung23:15:00 Uhr1023.80 hPa
Luftdruck (Minimum / Tiefstwert) und Zeitpunkt der Messung00:00:00 Uhr1018.10 hPa
Errechneter Absolutwert der Luftdruckschwankungen des Tages5.70 hPa
Höchste gemessene Windgeschwindigkeit und Uhrzeit der Messung23:45:00 Uhr0.00 km/h
Errechnete Windhäufigkeit in Relation zu den Messwerten des Tages0.00000 %
Niedrigste Windkühle (Windchill) und Zeitpunkt der Messung08:00:00 Uhr3.50 °C
Taupunkt (Maximum / Höchstwert) und Uhrzeit der Messung16:15:00 Uhr3.70 °C
Taupunkt (Minimum / Tiefstwert) und Uhrzeit der Messung08:00:002.20 °C
Anzahl der automatisch eingelesenen Messwerte 96

Detaillierte Wetter- und Klima- Messwerte für den 04.05.2016 in Holzhau im Erzgebirge (630m ü.NN)
ZeitTemperaturLuftdruckRel. LuftfeuchteWindWindrichtungWindchillTaupunktNiederschlag l/m²
23:45:003.80 °C1023.60 hPa93.00 %2.80 °C5.18
23:30:003.80 °C1023.70 hPa93.00 %2.80 °C5.18
23:15:003.90 °C1023.80 hPa93.00 %2.90 °C5.18
23:00:003.90 °C1023.70 hPa93.00 %2.90 °C5.18
22:45:003.90 °C1023.80 hPa93.00 %2.90 °C5.18
22:30:003.90 °C1023.80 hPa93.00 %2.90 °C5.18
22:15:003.90 °C1023.80 hPa93.00 %2.90 °C5.18
22:00:003.90 °C1023.50 hPa93.00 %2.90 °C5.18
21:45:003.90 °C1023.40 hPa93.00 %2.90 °C5.18
21:30:003.90 °C1023.30 hPa93.00 %2.90 °C5.18
21:15:003.80 °C1023.30 hPa93.00 %2.80 °C5.18
21:00:003.80 °C1023.40 hPa93.00 %2.80 °C5.18
20:45:003.90 °C1023.30 hPa93.00 %2.90 °C5.18
20:30:003.90 °C1023.30 hPa93.00 %2.90 °C5.18
20:15:004.10 °C1023.30 hPa93.00 %3.10 °C5.18
20:00:004.10 °C1023.10 hPa93.00 %3.10 °C5.18
19:45:004.40 °C1023.00 hPa93.00 %3.40 °C5.18
19:30:004.40 °C1022.90 hPa93.00 %3.40 °C5.18
19:15:004.50 °C1023.00 hPa93.00 %3.50 °C5.18
19:00:004.50 °C1023.20 hPa93.00 %3.50 °C5.18
18:45:004.50 °C1023.10 hPa93.00 %3.50 °C5.18
18:30:004.50 °C1023.00 hPa93.00 %3.50 °C5.18
18:15:004.40 °C1022.90 hPa93.00 %3.40 °C5.18
18:00:004.30 °C1022.90 hPa93.00 %3.30 °C5.18
17:45:004.20 °C1022.80 hPa93.00 %3.20 °C5.18
17:30:004.20 °C1022.90 hPa93.00 %3.20 °C5.18
17:15:004.30 °C1023.00 hPa93.00 %3.30 °C5.18
17:00:004.40 °C1023.10 hPa93.00 %3.40 °C5.18
16:45:004.40 °C1022.90 hPa92.00 %3.20 °C5.18
16:30:004.60 °C1022.80 hPa92.00 %3.40 °C5.18
16:15:004.70 °C1022.90 hPa93.00 %3.70 °C5.18
16:00:004.60 °C1022.80 hPa93.00 %3.60 °C4.66
15:45:004.50 °C1022.80 hPa92.00 %3.30 °C4.66
15:30:004.50 °C1022.80 hPa92.00 %3.30 °C4.66
15:15:004.60 °C1022.80 hPa92.00 %3.40 °C4.14
15:00:004.50 °C1022.80 hPa92.00 %3.30 °C4.14
14:45:004.60 °C1022.80 hPa92.00 %3.40 °C4.14
14:30:004.60 °C1022.80 hPa92.00 %3.40 °C4.14
14:15:004.60 °C1022.50 hPa92.00 %3.40 °C3.63
14:00:004.50 °C1022.60 hPa92.00 %3.30 °C3.11
13:45:004.50 °C1022.40 hPa92.00 %3.30 °C3.11
13:30:004.60 °C1022.30 hPa92.00 %3.40 °C3.11
13:15:004.60 °C1022.30 hPa92.00 %3.40 °C2.59
13:00:004.90 °C1022.30 hPa92.00 %3.70 °C2.07
12:45:004.90 °C1022.10 hPa92.00 %3.70 °C2.07
12:30:004.80 °C1021.90 hPa92.00 %3.60 °C1.55
12:15:004.70 °C1021.70 hPa92.00 %3.50 °C1.55
12:00:004.70 °C1021.70 hPa92.00 %3.50 °C1.55
11:45:004.60 °C1021.60 hPa92.00 %3.40 °C1.04
11:30:004.50 °C1021.60 hPa92.00 %3.30 °C1.04
11:15:004.70 °C1021.70 hPa92.00 %3.50 °C1.04
11:00:004.40 °C1021.50 hPa93.00 %3.40 °C1.04
10:45:004.30 °C1021.70 hPa92.00 %3.10 °C1.04
10:30:004.10 °C1021.60 hPa92.00 %2.90 °C0.52
10:15:004.10 °C1021.60 hPa92.00 %2.90 °C 
10:00:004.10 °C1021.50 hPa92.00 %2.90 °C 
09:45:004.20 °C1021.30 hPa92.00 %3.00 °C 
09:30:004.00 °C1021.20 hPa92.00 %2.80 °C 
09:15:003.90 °C1021.20 hPa92.00 %2.70 °C 
09:00:003.80 °C1021.20 hPa91.00 %2.50 °C 
08:45:003.80 °C1021.10 hPa91.00 %2.50 °C 
08:30:003.60 °C1021.10 hPa91.00 %2.30 °C 
08:15:003.60 °C1021.00 hPa91.00 %2.30 °C 
08:00:003.50 °C1021.00 hPa91.00 %2.20 °C 
07:45:003.60 °C1020.90 hPa91.00 %2.30 °C 
07:30:003.60 °C1020.90 hPa91.00 %2.30 °C 
07:15:003.80 °C1020.70 hPa91.00 %2.50 °C 
07:00:003.80 °C1020.60 hPa91.00 %2.50 °C 
06:45:003.90 °C1020.40 hPa90.00 %2.40 °C 
06:30:003.90 °C1020.30 hPa90.00 %2.40 °C 
06:15:004.10 °C1020.30 hPa90.00 %2.60 °C 
06:00:004.10 °C1020.10 hPa90.00 %2.60 °C 
05:45:004.30 °C1019.70 hPa90.00 %2.80 °C 
05:30:004.40 °C1019.70 hPa90.00 %2.90 °C 
05:15:004.50 °C1019.60 hPa90.00 %3.00 °C 
05:00:004.60 °C1019.50 hPa89.00 %2.90 °C 
04:45:004.80 °C1019.40 hPa89.00 %3.10 °C 
04:30:004.80 °C1019.20 hPa89.00 %3.10 °C 
04:15:004.90 °C1019.10 hPa89.00 %3.20 °C 
04:00:004.90 °C1018.90 hPa88.00 %3.10 °C 
03:45:004.90 °C1018.80 hPa88.00 %3.10 °C 
03:30:004.90 °C1018.80 hPa88.00 %3.10 °C 
03:15:005.00 °C1018.60 hPa88.00 %3.20 °C 
03:00:005.00 °C1018.60 hPa87.00 %3.00 °C 
02:45:005.00 °C1018.50 hPa87.00 %3.00 °C 
02:30:005.10 °C1018.40 hPa86.00 %3.00 °C 
02:15:005.10 °C1018.50 hPa86.00 %3.00 °C 
02:00:005.10 °C1018.50 hPa86.00 %3.00 °C 
01:45:005.10 °C1018.40 hPa86.00 %3.00 °C 
01:30:005.20 °C1018.30 hPa85.00 %2.90 °C 
01:15:005.30 °C1018.30 hPa85.00 %3.00 °C 
01:00:005.30 °C1018.30 hPa85.00 %3.00 °C 
00:45:005.30 °C1018.40 hPa84.00 %2.80 °C 
00:30:005.40 °C1018.30 hPa84.00 %2.90 °C 
00:15:005.40 °C1018.30 hPa84.00 %2.90 °C 
00:00:005.40 °C1018.10 hPa84.00 %2.90 °C 

Permanenter Link zu dieser Seite: Wetter im Erzgebirge am 04.05.2016
Performance-Info: Die Erstellung der Seite / Statistik(en) / Tabelle(n) erforderte 5 Datenbankserver-Abfrage(n) und dauerte 122 Millisekunden. (Dieser Messwert ist von der Gesamt-Auslastung des Servers abhängig.)
Erzgebirge - Wetter | Erzgebirge - Wetter (Mobilgeräte) | Komplette Klimadatenbank